Bluemoon — C6ZQ6 — position and weather

sailwx.info

Track history (hours):
 
Tides and Currents Weather Stations Pressure Air Temp Water Temp Dewpoint Dewpoint Depression Visibility Wind Speed Wind Dir Waves Ship Positions

Bluemoon

Last reported at 2017-Sep-24 04:50 UTC. Time now 2017-Oct-22 19:07 UTC.
Position N 33°58' E 134°58'.
Warning: this ship's position is 28 days out of date.

Length 289 m; draft 15 m.

Type: Cargo ship. MMSI: 311063200.

Date/timePositionNaut miles runAvg speedWind from/ knotsBaromVisibWave heightAir tempDewpointWater temp
2017-Sep-24 04:50N 33°58' E 134°58'412.8
2017-Sep-24 04:29N 34°02' E 134°57'612.6
2017-Sep-24 04:00N 34°08' E 134°57'611.1
2017-Sep-24 03:30N 34°14' E 134°57'5 9.6
2017-Sep-24 02:56N 34°19' E 134°60'511.5
2017-Sep-24 02:30N 34°24' E 135°01'612.5
2017-Sep-24 02:00N 34°30' E 135°03'5 9.2
2017-Sep-24 01:30N 34°34' E 135°06'4 7.1
2017-Sep-24 01:00N 34°36' E 135°02'3 6.4
2017-Sep-24 00:30N 34°37' E 134°58'4 8.6
2017-Sep-24 00:00N 34°35' E 134°54'5 9.1
2017-Sep-23 23:30N 34°33' E 134°49'510.6
2017-Sep-23 23:00N 34°35' E 134°42'612.9
2017-Sep-23 22:30N 34°40' E 134°47'4 7.6
2017-Sep-23 21:59N 34°42' E 134°50'  
2017-Sep-18 05:54N 34°41' E 134°50'2 5.5
2017-Sep-18 05:30N 34°40' E 134°48'4 0.1
2017-Sep-16 22:34N 34°38' E 134°43'0 0.2
2017-Sep-16 22:22N 34°38' E 134°43'0 0.0
2017-Sep-16 19:26N 34°38' E 134°43'4 0.3
2017-Sep-16 08:09N 34°40' E 134°47'1 7.8
2017-Sep-16 08:00N 34°40' E 134°48'2 0.1
2017-Sep-15 04:37N 34°42' E 134°50'0 4.5
2017-Sep-15 04:30N 34°41' E 134°49'3 0.3
2017-Sep-14 19:03N 34°40' E 134°47'  
Track history (hours):
 
Tides and Currents Weather Stations Pressure Air Temp Water Temp Dewpoint Dewpoint Depression Visibility Wind Speed Wind Dir Waves Ship Positions

Bluemoon

Last reported at 2017-Sep-24 04:50 UTC. Time now 2017-Oct-22 19:07 UTC.
Position N 33°58' E 134°58'.
Warning: this ship's position is 28 days out of date.

Length 289 m; draft 15 m.

Type: Cargo ship. MMSI: 311063200.

Date/timePositionNaut miles runAvg speedWind from/ knotsBaromVisibWave heightAir tempDewpointWater temp
2017-Sep-24 04:50N 33°58' E 134°58'412.8
2017-Sep-24 04:29N 34°02' E 134°57'612.6
2017-Sep-24 04:00N 34°08' E 134°57'611.1
2017-Sep-24 03:30N 34°14' E 134°57'5 9.6
2017-Sep-24 02:56N 34°19' E 134°60'511.5
2017-Sep-24 02:30N 34°24' E 135°01'612.5
2017-Sep-24 02:00N 34°30' E 135°03'5 9.2
2017-Sep-24 01:30N 34°34' E 135°06'4 7.1
2017-Sep-24 01:00N 34°36' E 135°02'3 6.4
2017-Sep-24 00:30N 34°37' E 134°58'4 8.6
2017-Sep-24 00:00N 34°35' E 134°54'5 9.1
2017-Sep-23 23:30N 34°33' E 134°49'510.6
2017-Sep-23 23:00N 34°35' E 134°42'612.9
2017-Sep-23 22:30N 34°40' E 134°47'4 7.6
2017-Sep-23 21:59N 34°42' E 134°50'  
2017-Sep-18 05:54N 34°41' E 134°50'2 5.5
2017-Sep-18 05:30N 34°40' E 134°48'4 0.1
2017-Sep-16 22:34N 34°38' E 134°43'0 0.2
2017-Sep-16 22:22N 34°38' E 134°43'0 0.0
2017-Sep-16 19:26N 34°38' E 134°43'4 0.3
2017-Sep-16 08:09N 34°40' E 134°47'1 7.8
2017-Sep-16 08:00N 34°40' E 134°48'2 0.1
2017-Sep-15 04:37N 34°42' E 134°50'0 4.5
2017-Sep-15 04:30N 34°41' E 134°49'3 0.3
2017-Sep-14 19:03N 34°40' E 134°47'  

Dump ship's entire track history